Time;durP1;ratioP1;P1;durP2;ratioP2;P2;SDS_P1;SDS_P2;PMS_P1;PMS_P2;Temp;Humidity;BMP_temperature;BMP_pressure;BME280_temperature;BME280_humidity;BME280_pressure;Samples;Min_cycle;Max_cycle;Signal;HPM_P1;HPM_P2
2020/12/01 15:51:23;;;;;;;293.42;233.85;;;;;;;;;;5096658;27;20563;-70
2020/12/01 15:53:49;;;;;;;288.60;219.65;;;;;;;;;;5089652;28;20035;-75
2020/12/01 15:56:24;;;;;;;1866.38;999.90;;;;;;;;;;5091719;28;20488;-76
2020/12/01 15:58:53;;;;;;;1867.85;999.90;;;;;;;;;;5091886;28;20020;-75
2020/12/01 16:01:28;;;;;;;1852.97;999.90;;;;;;;;;;5090679;28;20024;-77
2020/12/01 16:03:54;;;;;;;1470.18;999.90;;;;;;;;;;5077313;28;20074;-76
2020/12/01 16:06:36;;;;;;;301.20;251.40;;;;;;;;;;5083968;28;20032;-76
2020/12/01 16:09:02;;;;;;;316.73;283.33;;;;;;;;;;5082949;28;20051;-76
2020/12/01 16:11:42;;;;;;;328.08;293.90;;;;;;;;;;5084116;28;20029;-76
2020/12/01 16:14:27;;;;;;;315.17;281.52;;;;;;;;;;5083773;28;20032;-73
2020/12/01 16:16:56;;;;;;;328.98;294.65;;;;;;;;;;5079285;28;20040;-76
2020/12/01 16:19:24;;;;;;;314.45;280.60;;;;;;;;;;5076303;28;20396;-75
2020/12/01 16:21:52;;;;;;;343.00;308.10;;;;;;;;;;5079773;28;20012;-69
2020/12/01 16:24:18;;;;;;;319.67;285.92;;;;;;;;;;5078471;28;20032;-76
2020/12/01 16:26:55;;;;;;;354.60;319.10;;;;;;;;;;5078401;28;20103;-76
2020/12/01 16:29:21;;;;;;;337.45;302.48;;;;;;;;;;5075791;28;20389;-75
2020/12/01 16:31:47;;;;;;;310.45;276.55;;;;;;;;;;5076294;28;20032;-75
2020/12/01 16:34:14;;;;;;;314.05;279.88;;;;;;;;;;5075056;28;20028;-77
2020/12/01 16:36:59;;;;;;;329.08;294.40;;;;;;;;;;5077554;28;20039;-76
2020/12/01 16:39:31;;;;;;;318.85;284.00;;;;;;;;;;5074920;28;20816;-75
2020/12/01 16:41:58;;;;;;;317.27;283.60;;;;;;;;;;5079399;28;20070;-76
2020/12/01 16:44:25;;;;;;;321.23;286.90;;;;;;;;;;5074676;28;20430;-76
2020/12/01 16:47:05;;;;;;;356.95;321.70;;;;;;;;;;5078216;28;20025;-75
2020/12/01 16:49:37;;;;;;;307.85;274.65;;;;;;;;;;5080695;28;20668;-78
2020/12/01 16:52:09;;;;;;;296.35;260.33;;;;;;;;;;5079773;28;20020;-78
2020/12/01 16:54:35;;;;;;;346.85;311.63;;;;;;;;;;5082232;28;20446;-77
2020/12/01 16:57:13;;;;;;;390.58;354.13;;;;;;;;;;5084430;28;20111;-75
2020/12/01 16:59:39;;;;;;;303.63;270.17;;;;;;;;;;5076761;28;20074;-71
2020/12/01 17:02:24;;;;;;;351.98;316.67;;;;;;;;;;5067080;28;20049;-75
2020/12/01 17:05:05;;;;;;;315.27;281.60;;;;;;;;;;5064091;28;20404;-70
2020/12/01 17:07:31;;;;;;;283.38;231.93;;;;;;;;;;5062185;28;20021;-74
2020/12/01 17:10:00;;;;;;;286.30;240.70;;;;;;;;;;5070690;28;20029;-78
2020/12/01 17:12:26;;;;;;;319.33;285.83;;;;;;;;;;5074004;28;20578;-75
2020/12/01 17:15:11;;;;;;;292.25;256.90;;;;;;;;;;5058221;28;20115;-78
2020/12/01 17:17:42;;;;;;;277.63;217.40;;;;;;;;;;5072397;28;20465;-76
2020/12/01 17:20:08;;;;;;;281.85;236.23;;;;;;;;;;5058714;28;20096;-76
2020/12/01 17:22:35;;;;;;;301.65;268.63;;;;;;;;;;5061906;28;20074;-74
2020/12/01 17:25:02;;;;;;;335.08;300.85;;;;;;;;;;5057511;28;20029;-76
2020/12/01 17:27:29;;;;;;;298.85;264.00;;;;;;;;;;5059481;28;20756;-73
2020/12/01 17:29:55;;;;;;;;;;;;;;;;;;5058740;28;20075;-76
2020/12/01 17:32:44;;;;;;;300.40;267.73;;;;;;;;;;5059443;28;20387;-77
2020/12/01 17:35:16;;;;;;;327.52;293.23;;;;;;;;;;5067546;28;20021;-72
2020/12/01 17:37:51;;;;;;;315.35;281.40;;;;;;;;;;5072356;28;20401;-76
2020/12/01 17:40:20;;;;;;;288.85;242.20;;;;;;;;;;5070964;28;20036;-77
2020/12/01 17:42:54;;;;;;;303.67;268.95;;;;;;;;;;5071797;28;20060;-77
2020/12/01 17:45:31;;;;;;;329.85;295.90;;;;;;;;;;5068120;28;20023;-75
2020/12/01 17:48:16;;;;;;;285.65;233.05;;;;;;;;;;5058770;28;20082;-76
2020/12/01 17:50:44;;;;;;;328.85;294.92;;;;;;;;;;5056060;28;20501;-75
2020/12/01 17:53:28;;;;;;;298.08;260.08;;;;;;;;;;5058630;28;20039;-77
2020/12/01 17:55:54;;;;;;;285.58;240.00;;;;;;;;;;5068325;28;20032;-76
2020/12/01 17:58:22;;;;;;;296.33;260.30;;;;;;;;;;5064454;28;20029;-76
2020/12/01 18:00:48;;;;;;;;;;;;;;;;;;5056964;28;20055;-76
2020/12/01 18:03:19;;;;;;;338.75;304.38;;;;;;;;;;5061527;28;20011;-77
2020/12/01 18:05:45;;;;;;;304.52;271.27;;;;;;;;;;5060469;28;20029;-77
2020/12/01 18:08:34;;;;;;;294.20;259.80;;;;;;;;;;5062343;28;20029;-76
2020/12/01 18:11:10;;;;;;;355.13;319.95;;;;;;;;;;5066600;28;20041;-77
2020/12/01 18:13:48;;;;;;;302.88;269.75;;;;;;;;;;5067236;28;20519;-76
2020/12/01 18:16:20;;;;;;;306.38;273.40;;;;;;;;;;5059868;28;20029;-77
2020/12/01 18:18:52;;;;;;;310.73;277.38;;;;;;;;;;5059678;28;20481;-77
2020/12/01 18:21:30;;;;;;;316.35;282.55;;;;;;;;;;5064937;28;20383;-76
2020/12/01 18:24:05;;;;;;;295.30;255.52;;;;;;;;;;5068381;28;20048;-77
2020/12/01 18:26:43;;;;;;;307.23;273.90;;;;;;;;;;5071125;28;20036;-76
2020/12/01 18:29:21;;;;;;;323.63;289.90;;;;;;;;;;5065709;28;20036;-77
2020/12/01 18:31:54;;;;;;;284.45;223.40;;;;;;;;;;5062971;28;20036;-77
2020/12/01 18:34:20;;;;;;;275.65;208.30;;;;;;;;;;5064237;28;20057;-76
2020/12/01 18:36:47;;;;;;;292.88;259.33;;;;;;;;;;5074439;28;20044;-75
2020/12/01 18:39:13;;;;;;;316.00;282.40;;;;;;;;;;5073680;28;20025;-76
2020/12/01 18:41:39;;;;;;;337.40;303.05;;;;;;;;;;5064622;28;20462;-74
2020/12/01 18:44:06;;;;;;;298.77;262.70;;;;;;;;;;5072151;28;20039;-75
2020/12/01 18:46:33;;;;;;;295.42;254.02;;;;;;;;;;5067067;28;20346;-75
2020/12/01 18:48:59;;;;;;;299.70;265.10;;;;;;;;;;5074575;28;20103;-75
2020/12/01 18:51:25;;;;;;;307.42;274.13;;;;;;;;;;5071264;28;20743;-75
2020/12/01 18:53:51;;;;;;;293.35;253.52;;;;;;;;;;5066617;28;20412;-76
2020/12/01 18:56:17;;;;;;;317.55;283.40;;;;;;;;;;5070787;28;20078;-75
2020/12/01 18:58:43;;;;;;;309.10;275.60;;;;;;;;;;5072808;28;20423;-75
2020/12/01 19:01:11;;;;;;;336.70;302.25;;;;;;;;;;5073393;28;20032;-75
2020/12/01 19:03:39;;;;;;;294.83;255.85;;;;;;;;;;5070655;28;20021;-73
2020/12/01 19:06:08;;;;;;;292.05;256.63;;;;;;;;;;5070695;28;20028;-73
2020/12/01 19:08:34;;;;;;;297.60;260.25;;;;;;;;;;5073845;28;20118;-75
2020/12/01 19:11:00;;;;;;;328.77;294.27;;;;;;;;;;5072050;28;20025;-76
2020/12/01 19:13:27;;;;;;;335.60;301.23;;;;;;;;;;5067869;28;20029;-74
2020/12/01 19:15:53;;;;;;;;;;;;;;;;;;5064707;28;20496;-72
2020/12/01 19:18:19;;;;;;;310.10;276.63;;;;;;;;;;5072327;28;19915;-75
2020/12/01 19:20:45;;;;;;;325.77;291.77;;;;;;;;;;5067514;28;20036;-75
2020/12/01 19:23:11;;;;;;;307.38;273.90;;;;;;;;;;5072011;28;20035;-76
2020/12/01 19:25:38;;;;;;;302.13;268.55;;;;;;;;;;5075445;28;20031;-76
2020/12/01 19:28:05;;;;;;;324.58;290.25;;;;;;;;;;5070622;28;20115;-76
2020/12/01 19:30:32;;;;;;;305.37;272.10;;;;;;;;;;5073615;28;20029;-76
2020/12/01 19:32:58;;;;;;;313.88;280.25;;;;;;;;;;5070901;28;20025;-74
2020/12/01 19:35:24;;;;;;;358.63;322.88;;;;;;;;;;5073185;28;20025;-75
2020/12/01 19:37:52;;;;;;;322.67;288.73;;;;;;;;;;5069384;28;21941;-76
2020/12/01 19:40:19;;;;;;;301.70;268.75;;;;;;;;;;5073900;28;20348;-75
2020/12/01 19:42:45;;;;;;;309.85;276.20;;;;;;;;;;5063926;28;20012;-75
2020/12/01 19:45:12;;;;;;;324.35;290.35;;;;;;;;;;5069285;28;20368;-74
2020/12/01 19:47:38;;;;;;;335.95;301.30;;;;;;;;;;5068201;28;20111;-75
2020/12/01 19:50:05;;;;;;;338.00;303.50;;;;;;;;;;5072210;28;20033;-75
2020/12/01 19:52:31;;;;;;;340.65;305.52;;;;;;;;;;5071178;28;20477;-71
2020/12/01 19:54:57;;;;;;;290.33;253.60;;;;;;;;;;5070054;28;20508;-75
2020/12/01 19:57:24;;;;;;;336.60;302.65;;;;;;;;;;5070960;28;20029;-75
2020/12/01 19:59:51;;;;;;;303.92;271.02;;;;;;;;;;5071700;28;20037;-75
2020/12/01 20:02:17;;;;;;;333.88;299.63;;;;;;;;;;5062136;28;20482;-74
2020/12/01 20:04:43;;;;;;;346.63;311.75;;;;;;;;;;5067815;28;20060;-76
2020/12/01 20:07:09;;;;;;;353.17;318.30;;;;;;;;;;5075316;28;20032;-74
2020/12/01 20:09:35;;;;;;;360.63;325.30;;;;;;;;;;5066865;28;20022;-75
2020/12/01 20:12:07;;;;;;;362.35;327.17;;;;;;;;;;5071993;28;20051;-76
2020/12/01 20:14:32;;;;;;;356.42;321.30;;;;;;;;;;5068318;28;20055;-75
2020/12/01 20:16:59;;;;;;;327.70;294.02;;;;;;;;;;5066885;28;20032;-75
2020/12/01 20:19:26;;;;;;;326.15;292.42;;;;;;;;;;5061758;28;20078;-76
2020/12/01 20:21:52;;;;;;;363.63;328.13;;;;;;;;;;5064821;28;20033;-75
2020/12/01 20:24:18;;;;;;;356.63;321.63;;;;;;;;;;5071112;28;20041;-75
2020/12/01 20:26:46;;;;;;;316.02;282.60;;;;;;;;;;5065245;28;20045;-76
2020/12/01 20:29:12;;;;;;;339.33;305.20;;;;;;;;;;5072513;28;20384;-75
2020/12/01 20:31:38;;;;;;;308.23;275.27;;;;;;;;;;5066212;28;20036;-76
2020/12/01 20:34:04;;;;;;;307.48;274.63;;;;;;;;;;5064204;28;20021;-78
2020/12/01 20:36:43;;;;;;;318.27;285.15;;;;;;;;;;5061876;28;20029;-75
2020/12/01 20:39:18;;;;;;;321.80;288.40;;;;;;;;;;5069918;28;20032;-72
2020/12/01 20:41:44;;;;;;;334.77;300.83;;;;;;;;;;5069402;28;20079;-76
2020/12/01 20:44:11;;;;;;;287.17;244.85;;;;;;;;;;5071538;28;20029;-77
2020/12/01 20:46:37;;;;;;;330.55;296.92;;;;;;;;;;5078403;28;20373;-76
2020/12/01 20:49:03;;;;;;;356.15;321.23;;;;;;;;;;5077857;28;20035;-74
2020/12/01 20:51:29;;;;;;;316.25;283.25;;;;;;;;;;5078318;28;20032;-76
2020/12/01 20:53:55;;;;;;;288.33;254.98;;;;;;;;;;5078323;28;20507;-76
2020/12/01 20:56:21;;;;;;;310.27;277.27;;;;;;;;;;5077393;28;20070;-75
2020/12/01 20:58:47;;;;;;;277.63;227.75;;;;;;;;;;5076175;28;20037;-75
2020/12/01 21:01:13;;;;;;;340.80;306.95;;;;;;;;;;5084628;28;20048;-75
2020/12/01 21:03:39;;;;;;;339.85;306.02;;;;;;;;;;5075077;28;20468;-75
2020/12/01 21:06:05;;;;;;;282.20;244.35;;;;;;;;;;5074565;28;20465;-75
2020/12/01 21:08:33;;;;;;;342.83;308.80;;;;;;;;;;5076762;28;20020;-76
2020/12/01 21:11:02;;;;;;;313.02;280.05;;;;;;;;;;5067557;28;20473;-76
2020/12/01 21:13:30;;;;;;;331.60;297.90;;;;;;;;;;5064680;28;20074;-75
2020/12/01 21:15:56;;;;;;;302.17;269.13;;;;;;;;;;5074002;28;20082;-75
2020/12/01 21:18:27;;;;;;;308.52;275.58;;;;;;;;;;5071994;28;20036;-72
2020/12/01 21:20:58;;;;;;;322.50;289.20;;;;;;;;;;5070624;28;20075;-73
2020/12/01 21:23:27;;;;;;;311.38;278.27;;;;;;;;;;5074760;28;20060;-76
2020/12/01 21:25:53;;;;;;;354.13;319.58;;;;;;;;;;5072242;28;20052;-76
2020/12/01 21:28:24;;;;;;;334.08;300.60;;;;;;;;;;5074570;28;20389;-76
2020/12/01 21:30:58;;;;;;;341.45;307.92;;;;;;;;;;5071308;28;20029;-75
2020/12/01 21:33:27;;;;;;;298.33;266.40;;;;;;;;;;5069883;28;20036;-75
2020/12/01 21:35:55;;;;;;;308.42;275.88;;;;;;;;;;5064851;28;20108;-75
2020/12/01 21:38:22;;;;;;;334.67;301.10;;;;;;;;;;5069303;28;20039;-75
2020/12/01 21:40:48;;;;;;;323.60;290.55;;;;;;;;;;5077540;28;20041;-74
2020/12/01 21:43:20;;;;;;;340.92;307.08;;;;;;;;;;5071763;28;20361;-75
2020/12/01 21:45:46;;;;;;;294.52;262.35;;;;;;;;;;5059954;28;20112;-75
2020/12/01 21:48:14;;;;;;;340.70;306.98;;;;;;;;;;5073988;28;20025;-76
2020/12/01 21:50:40;;;;;;;335.92;302.55;;;;;;;;;;5073863;28;20052;-77
2020/12/01 21:53:06;;;;;;;346.70;312.65;;;;;;;;;;5071867;28;20064;-74
2020/12/01 21:55:41;;;;;;;308.00;275.48;;;;;;;;;;5072246;28;20028;-76
2020/12/01 21:58:20;;;;;;;348.23;313.90;;;;;;;;;;5060455;28;20051;-68
2020/12/01 22:01:05;;;;;;;336.42;302.65;;;;;;;;;;5066952;28;20481;-72
2020/12/01 22:03:37;;;;;;;322.98;289.65;;;;;;;;;;5062107;28;20025;-77
2020/12/01 22:06:22;;;;;;;366.52;331.60;;;;;;;;;;5073853;28;20047;-76
2020/12/01 22:08:58;;;;;;;357.02;322.42;;;;;;;;;;5066788;28;20025;-75
2020/12/01 22:11:36;;;;;;;305.30;272.83;;;;;;;;;;5061187;28;20027;-74
2020/12/01 22:14:09;;;;;;;322.15;289.08;;;;;;;;;;5071534;28;20536;-75
2020/12/01 22:16:37;;;;;;;337.30;303.45;;;;;;;;;;5064971;28;20048;-76
2020/12/01 22:19:06;;;;;;;339.75;305.90;;;;;;;;;;5070462;28;20060;-75
2020/12/01 22:21:35;;;;;;;372.63;337.58;;;;;;;;;;5068483;28;20121;-77
2020/12/01 22:24:19;;;;;;;345.15;311.15;;;;;;;;;;5067818;28;20046;-78
2020/12/01 22:27:03;;;;;;;335.63;301.83;;;;;;;;;;5073152;28;20036;-76
2020/12/01 22:29:38;;;;;;;387.38;351.73;;;;;;;;;;5071052;28;20055;-76
2020/12/01 22:32:14;;;;;;;317.05;283.90;;;;;;;;;;5067210;28;20381;-76
2020/12/01 22:34:47;;;;;;;351.42;317.17;;;;;;;;;;5071499;28;20029;-74
2020/12/01 22:37:14;;;;;;;367.83;332.90;;;;;;;;;;5069073;28;20035;-75
2020/12/01 22:39:40;;;;;;;352.85;318.48;;;;;;;;;;5061324;28;20041;-75
2020/12/01 22:42:20;;;;;;;389.83;354.10;;;;;;;;;;5067915;28;20029;-76
2020/12/01 22:45:05;;;;;;;365.33;330.38;;;;;;;;;;5068422;28;20048;-75
2020/12/01 22:47:42;;;;;;;370.70;335.85;;;;;;;;;;5070350;28;20059;-71
2020/12/01 22:50:20;;;;;;;353.23;319.00;;;;;;;;;;5066874;28;20088;-72
2020/12/01 22:53:05;;;;;;;353.15;318.55;;;;;;;;;;5068508;28;20051;-75
2020/12/01 22:55:57;;;;;;;359.38;325.15;;;;;;;;;;5068221;28;20028;-74
2020/12/01 22:58:24;;;;;;;336.55;302.77;;;;;;;;;;5060258;28;20119;-75
2020/12/01 23:00:52;;;;;;;344.35;310.05;;;;;;;;;;5073731;28;20040;-76
2020/12/01 23:03:17;;;;;;;;;;;;;;;;;;5060932;28;20063;-77
2020/12/01 23:05:44;;;;;;;336.48;303.00;;;;;;;;;;5069360;28;19908;-77
2020/12/01 23:08:18;;;;;;;398.67;362.77;;;;;;;;;;5069896;28;20048;-77
2020/12/01 23:10:50;;;;;;;346.80;312.75;;;;;;;;;;5076750;28;20064;-76
2020/12/01 23:13:20;;;;;;;329.17;295.70;;;;;;;;;;5067220;28;20038;-77
2020/12/01 23:15:47;;;;;;;335.02;301.42;;;;;;;;;;5070223;28;20024;-78
2020/12/01 23:18:16;;;;;;;357.60;323.00;;;;;;;;;;5074216;28;20032;-77
2020/12/01 23:20:42;;;;;;;343.50;309.60;;;;;;;;;;5060832;28;20040;-76
2020/12/01 23:23:10;;;;;;;344.85;310.77;;;;;;;;;;5058439;28;20029;-77
2020/12/01 23:25:36;;;;;;;340.10;306.25;;;;;;;;;;5067221;28;20028;-78
2020/12/01 23:28:04;;;;;;;394.70;358.70;;;;;;;;;;5070099;28;20027;-76
2020/12/01 23:30:35;;;;;;;332.55;298.90;;;;;;;;;;5073851;28;20024;-76
2020/12/01 23:33:04;;;;;;;305.52;272.98;;;;;;;;;;5056023;28;20477;-77
2020/12/01 23:35:32;;;;;;;318.13;285.00;;;;;;;;;;5061629;28;20365;-78
2020/12/01 23:37:59;;;;;;;324.67;291.35;;;;;;;;;;5068448;28;20027;-77
2020/12/01 23:40:25;;;;;;;;;;;;;;;;;;5073572;28;20036;-76
2020/12/01 23:43:03;;;;;;;347.02;312.90;;;;;;;;;;5069268;28;19923;-76
2020/12/01 23:45:30;;;;;;;389.70;354.10;;;;;;;;;;5057804;28;20021;-76
2020/12/01 23:47:57;;;;;;;316.92;284.17;;;;;;;;;;5069065;28;20085;-73
2020/12/01 23:50:33;;;;;;;356.98;322.83;;;;;;;;;;5068258;28;20033;-76
2020/12/01 23:53:01;;;;;;;296.80;264.95;;;;;;;;;;5058745;28;20104;-76
2020/12/01 23:55:28;;;;;;;381.75;346.25;;;;;;;;;;5067626;28;20037;-77
2020/12/01 23:58:05;;;;;;;314.73;281.98;;;;;;;;;;5062082;28;20492;-77
